createdAt,value
2022-07-30T00:01:53.935Z,28.00
2022-07-30T00:04:01.241Z,28.10
2022-07-30T00:06:08.641Z,28.10
2022-07-30T00:08:18.643Z,28.10
2022-07-30T00:10:25.866Z,28.20
2022-07-30T00:12:33.101Z,28.20
2022-07-30T00:14:42.075Z,28.20
2022-07-30T00:16:49.109Z,28.30
2022-07-30T00:18:56.406Z,28.30
2022-07-30T00:21:03.999Z,28.30
2022-07-30T00:23:11.469Z,28.40
2022-07-30T00:25:18.652Z,28.40
2022-07-30T00:27:26.086Z,28.40
2022-07-30T00:29:33.426Z,28.40
2022-07-30T00:31:42.394Z,28.50
2022-07-30T00:33:49.886Z,28.50
2022-07-30T00:35:56.963Z,28.50
2022-07-30T00:38:04.658Z,28.50
2022-07-30T00:40:13.325Z,28.50
2022-07-30T00:42:26.803Z,28.50
2022-07-30T00:44:34.652Z,28.60
2022-07-30T00:46:43.427Z,28.60
2022-07-30T00:48:50.530Z,28.60
2022-07-30T00:50:57.839Z,28.60
2022-07-30T00:53:04.867Z,28.70
2022-07-30T00:55:13.685Z,28.80
2022-07-30T00:57:21.173Z,28.80
2022-07-30T00:59:29.786Z,28.80
2022-07-30T01:01:37.912Z,28.80
2022-07-30T01:03:46.912Z,28.90
2022-07-30T01:05:54.001Z,28.90
2022-07-30T01:08:01.897Z,28.90
2022-07-30T01:10:10.401Z,28.90
2022-07-30T01:12:23.114Z,29.00
2022-07-30T01:14:30.296Z,29.00
2022-07-30T01:16:37.979Z,29.10
2022-07-30T01:19:06.582Z,29.10
2022-07-30T01:21:15.762Z,29.10
2022-07-30T01:23:31.071Z,29.20
2022-07-30T01:26:04.472Z,29.20
2022-07-30T01:28:14.517Z,29.20
2022-07-30T01:30:30.102Z,29.30
2022-07-30T01:32:40.615Z,29.30
2022-07-30T01:34:49.887Z,29.30
2022-07-30T01:36:59.052Z,29.40
2022-07-30T01:39:07.785Z,29.50
2022-07-30T01:41:18.655Z,29.50
2022-07-30T01:43:29.263Z,29.60
2022-07-30T01:45:42.320Z,29.60
2022-07-30T01:47:54.991Z,29.60
2022-07-30T01:50:05.001Z,29.70
2022-07-30T01:52:13.403Z,29.70
2022-07-30T01:54:22.378Z,29.80
2022-07-30T01:56:34.754Z,29.80
2022-07-30T01:58:43.300Z,29.90
2022-07-30T02:01:03.182Z,29.90
2022-07-30T02:03:11.720Z,30.00
2022-07-30T02:05:19.072Z,30.00
2022-07-30T02:07:32.396Z,30.00
2022-07-30T02:09:46.963Z,30.10
2022-07-30T02:12:14.487Z,30.10
2022-07-30T02:14:25.891Z,30.10
2022-07-30T02:16:38.739Z,30.20
2022-07-30T02:18:58.741Z,30.20
2022-07-30T02:21:10.874Z,30.30
2022-07-30T02:23:23.044Z,30.30
2022-07-30T02:25:32.824Z,30.30
2022-07-30T02:27:43.799Z,30.40
2022-07-30T02:29:53.957Z,30.40
2022-07-30T02:32:03.495Z,30.40
2022-07-30T02:34:12.264Z,30.50
2022-07-30T02:36:23.185Z,30.50
2022-07-30T02:38:32.308Z,30.60
2022-07-30T02:40:43.885Z,30.60
2022-07-30T02:42:53.368Z,30.70
2022-07-30T02:45:06.343Z,30.70
2022-07-30T02:47:14.658Z,30.70
2022-07-30T02:49:36.778Z,30.80
2022-07-30T02:51:45.149Z,30.90
2022-07-30T02:53:55.199Z,31.00
2022-07-30T02:56:05.189Z,31.10
2022-07-30T02:58:15.191Z,31.20
2022-07-30T03:00:23.935Z,31.30
2022-07-30T03:02:31.819Z,31.40
2022-07-30T03:04:41.179Z,31.50
2022-07-30T03:06:50.112Z,31.60
2022-07-30T03:08:58.059Z,31.60
2022-07-30T03:11:08.047Z,31.70
2022-07-30T03:13:18.052Z,31.80
2022-07-30T03:15:27.994Z,31.80
2022-07-30T03:17:41.470Z,31.80
2022-07-30T03:19:51.677Z,31.90
2022-07-30T03:22:00.804Z,31.90
2022-07-30T03:24:10.037Z,32.00
2022-07-30T03:26:18.700Z,32.00
2022-07-30T03:28:29.782Z,32.00
2022-07-30T03:30:38.542Z,32.10
2022-07-30T03:32:47.102Z,32.20
2022-07-30T03:34:55.262Z,32.30
2022-07-30T03:37:04.954Z,32.40
2022-07-30T03:39:14.540Z,32.50
2022-07-30T03:41:22.598Z,32.60
2022-07-30T03:43:33.964Z,32.60
2022-07-30T03:45:44.173Z,32.60
2022-07-30T03:47:51.970Z,32.60
2022-07-30T03:49:59.263Z,32.60
2022-07-30T03:52:07.202Z,32.50
2022-07-30T03:54:16.223Z,32.40
2022-07-30T03:56:36.725Z,32.30
2022-07-30T03:58:48.515Z,32.30
2022-07-30T04:00:55.538Z,32.50
2022-07-30T04:03:02.871Z,32.50
2022-07-30T04:05:22.151Z,32.60
2022-07-30T04:07:30.958Z,32.70
2022-07-30T04:09:38.405Z,32.70
2022-07-30T04:12:04.059Z,32.70
2022-07-30T04:14:15.337Z,32.70
2022-07-30T04:16:41.345Z,32.70
2022-07-30T04:18:56.734Z,32.60
2022-07-30T04:21:07.253Z,32.70
2022-07-30T04:23:23.391Z,32.80
2022-07-30T04:25:31.385Z,32.90
2022-07-30T04:27:39.341Z,32.90
2022-07-30T04:30:10.017Z,33.00
2022-07-30T04:32:18.894Z,33.10
2022-07-30T04:34:51.062Z,33.20
2022-07-30T04:37:12.731Z,33.20
2022-07-30T04:39:20.422Z,33.20
2022-07-30T04:41:27.603Z,33.30
2022-07-30T04:43:54.958Z,33.30
2022-07-30T04:46:04.025Z,33.30
2022-07-30T04:48:11.522Z,33.40
2022-07-30T04:50:25.512Z,33.40
2022-07-30T04:52:34.538Z,33.40
2022-07-30T04:54:47.503Z,33.40
2022-07-30T04:56:55.866Z,33.40
2022-07-30T04:59:04.683Z,33.40
2022-07-30T05:01:14.858Z,33.40
2022-07-30T05:03:24.742Z,33.50
2022-07-30T05:05:34.880Z,33.60
2022-07-30T05:07:43.455Z,33.70
2022-07-30T05:09:51.404Z,33.70
2022-07-30T05:12:00.482Z,33.80
2022-07-30T05:14:09.855Z,33.70
2022-07-30T05:16:20.123Z,33.50
2022-07-30T05:18:27.646Z,33.40
2022-07-30T05:20:34.789Z,33.30
2022-07-30T05:22:51.645Z,33.20
2022-07-30T05:25:01.072Z,33.20
2022-07-30T05:27:09.276Z,33.10
2022-07-30T05:29:19.627Z,33.10
2022-07-30T05:31:35.817Z,33.10
2022-07-30T05:33:46.389Z,33.30
2022-07-30T05:35:57.101Z,33.40
2022-07-30T05:38:05.304Z,33.60
2022-07-30T05:40:23.393Z,33.80
2022-07-30T05:42:30.535Z,33.90
2022-07-30T05:44:38.270Z,33.90
2022-07-30T05:46:47.316Z,33.90
2022-07-30T05:48:55.049Z,33.90
2022-07-30T05:51:02.225Z,34.00
2022-07-30T05:53:09.459Z,34.10
2022-07-30T05:55:36.334Z,34.30
2022-07-30T05:57:58.685Z,34.40
2022-07-30T06:00:06.798Z,34.50
2022-07-30T06:02:34.811Z,34.60
2022-07-30T06:04:54.510Z,34.70
2022-07-30T06:07:03.080Z,34.80
2022-07-30T06:09:11.814Z,34.80
2022-07-30T06:11:20.638Z,34.70
2022-07-30T06:13:28.639Z,34.60
2022-07-30T06:15:35.842Z,34.70
2022-07-30T06:17:52.020Z,34.70
2022-07-30T06:20:21.922Z,34.70
2022-07-30T06:22:41.195Z,34.70
2022-07-30T06:24:56.566Z,34.80
2022-07-30T06:27:07.121Z,34.90
2022-07-30T06:29:14.518Z,34.90
2022-07-30T06:31:22.360Z,34.90
2022-07-30T06:33:31.384Z,34.90
2022-07-30T06:35:38.920Z,34.80
2022-07-30T06:38:01.794Z,34.70
2022-07-30T06:40:16.689Z,34.60
2022-07-30T06:42:35.946Z,34.50
2022-07-30T06:45:03.313Z,34.30
2022-07-30T06:47:30.560Z,34.30
2022-07-30T06:49:41.269Z,34.30
2022-07-30T06:51:50.190Z,34.40
2022-07-30T06:53:57.579Z,34.30
2022-07-30T06:56:08.098Z,34.20
2022-07-30T06:58:25.265Z,34.20
2022-07-30T07:00:52.834Z,34.10
2022-07-30T07:03:00.885Z,34.10
2022-07-30T07:05:19.360Z,34.20
2022-07-30T07:07:41.182Z,34.20
2022-07-30T07:09:51.032Z,34.30
2022-07-30T07:12:10.910Z,34.40
2022-07-30T07:14:20.290Z,34.50
2022-07-30T07:16:27.804Z,34.50
2022-07-30T07:18:36.295Z,34.50
2022-07-30T07:20:48.189Z,34.60
2022-07-30T07:22:55.685Z,34.60
2022-07-30T07:25:05.652Z,34.80
2022-07-30T07:27:15.509Z,34.90
2022-07-30T07:29:26.178Z,35.10
2022-07-30T07:32:05.418Z,35.30
2022-07-30T07:34:00.819Z,35.40
2022-07-30T07:36:10.558Z,35.50
2022-07-30T07:38:17.804Z,35.60
2022-07-30T07:40:24.879Z,35.50
2022-07-30T07:42:32.168Z,35.30
2022-07-30T07:44:39.190Z,35.10
2022-07-30T07:46:46.512Z,35.00
2022-07-30T07:48:53.849Z,34.80
2022-07-30T07:51:09.533Z,34.60
2022-07-30T07:53:18.150Z,34.50
2022-07-30T07:55:26.103Z,34.40
2022-07-30T07:57:33.946Z,34.40
2022-07-30T07:59:41.600Z,34.40
2022-07-30T08:01:54.756Z,34.40
2022-07-30T08:04:14.846Z,34.30
2022-07-30T08:06:37.654Z,34.30
2022-07-30T08:08:57.176Z,34.20
2022-07-30T08:11:17.217Z,34.10
2022-07-30T08:13:51.538Z,34.00
2022-07-30T08:16:12.659Z,34.00
2022-07-30T08:18:32.348Z,33.90
2022-07-30T08:20:51.563Z,33.80
2022-07-30T08:23:06.219Z,33.90
2022-07-30T08:25:22.500Z,34.00
2022-07-30T08:27:32.771Z,34.10
2022-07-30T08:29:40.205Z,34.10
2022-07-30T08:31:47.901Z,34.10
2022-07-30T08:33:55.286Z,34.00
2022-07-30T08:36:08.986Z,34.00
2022-07-30T08:38:19.993Z,34.00
2022-07-30T08:40:29.940Z,34.10
2022-07-30T08:42:43.479Z,34.20
2022-07-30T08:44:50.911Z,34.20
2022-07-30T08:46:59.833Z,34.30
2022-07-30T08:49:22.623Z,34.40
2022-07-30T08:51:30.790Z,34.30
2022-07-30T08:53:49.645Z,34.30
2022-07-30T08:55:58.764Z,34.40
2022-07-30T08:58:06.875Z,34.50
2022-07-30T09:00:15.789Z,34.50
2022-07-30T09:02:27.549Z,34.60
2022-07-30T09:04:41.270Z,34.50
2022-07-30T09:06:48.814Z,34.40
2022-07-30T09:08:57.982Z,34.30
2022-07-30T09:11:05.467Z,34.20
2022-07-30T09:13:30.730Z,34.10
2022-07-30T09:15:43.280Z,33.90
2022-07-30T09:17:56.098Z,33.30
2022-07-30T09:20:09.942Z,32.80
2022-07-30T09:22:16.299Z,32.50
2022-07-30T09:24:48.364Z,32.10
2022-07-30T09:27:15.059Z,32.00
2022-07-30T09:29:41.852Z,31.90
2022-07-30T09:32:02.242Z,31.80
2022-07-30T09:34:29.482Z,31.70
2022-07-30T09:36:39.638Z,31.60
2022-07-30T09:39:06.679Z,31.50
2022-07-30T09:41:39.807Z,31.20
2022-07-30T09:43:53.670Z,31.20
2022-07-30T09:46:20.411Z,31.00
2022-07-30T09:48:29.893Z,31.00
2022-07-30T09:50:37.278Z,31.00
2022-07-30T09:52:48.947Z,31.00
2022-07-30T09:54:55.531Z,31.10
2022-07-30T09:57:22.876Z,31.10
2022-07-30T09:59:36.517Z,31.20
2022-07-30T10:02:00.966Z,31.20
2022-07-30T10:04:28.875Z,31.30
2022-07-30T10:06:46.288Z,31.30
2022-07-30T10:09:14.292Z,31.20
2022-07-30T10:11:31.218Z,31.20
2022-07-30T10:13:45.417Z,31.20
2022-07-30T10:15:54.136Z,31.10
2022-07-30T10:18:01.723Z,31.10
2022-07-30T10:20:28.954Z,31.10
2022-07-30T10:22:50.453Z,31.10
2022-07-30T10:25:11.191Z,31.10
2022-07-30T10:27:36.957Z,31.10
2022-07-30T10:29:52.649Z,31.10
2022-07-30T10:32:01.254Z,31.10
2022-07-30T10:34:08.895Z,31.10
2022-07-30T10:36:19.559Z,31.10
2022-07-30T10:38:39.097Z,31.10
2022-07-30T10:40:55.485Z,31.10
2022-07-30T10:43:35.955Z,31.10
2022-07-30T10:45:58.187Z,31.00
2022-07-30T10:48:08.684Z,31.00
2022-07-30T10:50:17.873Z,31.00
2022-07-30T10:52:48.032Z,30.90
2022-07-30T10:54:58.386Z,30.90
2022-07-30T10:57:08.946Z,30.80
2022-07-30T10:59:15.924Z,30.70
2022-07-30T11:01:24.953Z,30.60
2022-07-30T11:03:41.192Z,30.60
2022-07-30T11:05:53.750Z,30.40
2022-07-30T11:08:35.834Z,30.40
2022-07-30T11:10:46.013Z,30.40
2022-07-30T11:12:59.962Z,30.30
2022-07-30T11:15:18.295Z,30.30
2022-07-30T11:17:28.189Z,30.20
2022-07-30T11:19:56.151Z,30.20
2022-07-30T11:22:27.906Z,30.10
2022-07-30T11:24:48.979Z,30.10
2022-07-30T11:26:56.505Z,30.10
2022-07-30T11:29:03.842Z,30.00
2022-07-30T11:31:56.414Z,30.00
2022-07-30T11:34:33.840Z,29.80
2022-07-30T11:36:41.418Z,29.90
2022-07-30T11:39:05.193Z,29.80
2022-07-30T11:41:14.984Z,29.80
2022-07-30T11:43:35.871Z,29.70
2022-07-30T11:45:44.810Z,29.70
2022-07-30T11:47:54.290Z,29.70
2022-07-30T11:50:03.632Z,29.70
2022-07-30T11:52:11.531Z,29.60
2022-07-30T11:54:19.023Z,29.60
2022-07-30T11:56:26.295Z,29.50
2022-07-30T11:58:35.321Z,29.50
2022-07-30T12:00:46.647Z,29.40
2022-07-30T12:02:54.083Z,29.30
2022-07-30T12:05:03.175Z,29.40
2022-07-30T12:07:10.505Z,29.40
2022-07-30T12:09:27.434Z,29.30
2022-07-30T12:11:37.980Z,29.30
2022-07-30T12:13:46.493Z,29.40
2022-07-30T12:15:54.289Z,29.30
2022-07-30T12:18:26.444Z,29.30
2022-07-30T12:20:32.758Z,29.40
2022-07-30T12:22:39.835Z,29.30
2022-07-30T12:24:47.069Z,29.20
2022-07-30T12:26:54.100Z,29.20
2022-07-30T12:29:03.126Z,29.10
2022-07-30T12:31:10.207Z,29.00
2022-07-30T12:33:18.559Z,29.00
2022-07-30T12:35:25.958Z,29.00
2022-07-30T12:37:35.123Z,29.00
2022-07-30T12:39:42.358Z,29.00
2022-07-30T12:41:50.822Z,29.00
2022-07-30T12:43:58.623Z,29.00
2022-07-30T12:46:06.364Z,29.00
2022-07-30T12:48:15.230Z,29.00
2022-07-30T12:50:22.570Z,28.90
2022-07-30T12:52:31.602Z,28.90
2022-07-30T12:54:40.972Z,28.90
2022-07-30T12:57:02.148Z,28.90
2022-07-30T12:59:23.604Z,28.90
2022-07-30T13:01:47.072Z,28.90
2022-07-30T13:03:54.604Z,28.90
2022-07-30T13:06:03.125Z,28.80
2022-07-30T13:08:10.712Z,28.80
2022-07-30T13:10:19.988Z,28.80
2022-07-30T13:12:27.477Z,28.90
2022-07-30T13:14:34.818Z,28.80
2022-07-30T13:16:42.970Z,28.80
2022-07-30T13:18:50.403Z,28.80
2022-07-30T13:20:58.006Z,28.80
2022-07-30T13:23:05.335Z,28.80
2022-07-30T13:25:14.005Z,28.80
2022-07-30T13:27:22.768Z,28.80
2022-07-30T13:29:30.318Z,28.80
2022-07-30T13:31:42.929Z,28.80
2022-07-30T13:33:50.977Z,28.90
2022-07-30T13:35:58.156Z,28.80
2022-07-30T13:38:07.273Z,28.80
2022-07-30T13:40:15.134Z,28.80
2022-07-30T13:42:23.889Z,28.70
2022-07-30T13:44:31.176Z,28.70
2022-07-30T13:46:41.315Z,28.70
2022-07-30T13:48:49.106Z,28.70
2022-07-30T13:50:56.262Z,28.70
2022-07-30T13:53:03.895Z,28.60
2022-07-30T13:55:11.487Z,28.70
2022-07-30T13:57:18.527Z,28.60
2022-07-30T13:59:27.384Z,28.60
2022-07-30T14:01:34.753Z,28.60
2022-07-30T14:03:43.772Z,28.50
2022-07-30T14:05:55.190Z,28.50
2022-07-30T14:08:19.573Z,28.50
2022-07-30T14:10:27.152Z,28.40
2022-07-30T14:12:34.642Z,28.40
2022-07-30T14:14:43.420Z,28.40
2022-07-30T14:16:51.929Z,28.40
2022-07-30T14:19:01.721Z,28.50
2022-07-30T14:21:09.165Z,28.40
2022-07-30T14:23:16.283Z,28.40
2022-07-30T14:25:24.040Z,28.50
2022-07-30T14:27:31.223Z,28.40
2022-07-30T14:29:38.139Z,28.50
2022-07-30T14:31:47.262Z,28.40
2022-07-30T14:33:54.600Z,28.40
2022-07-30T14:36:02.187Z,28.40
2022-07-30T14:38:09.523Z,28.40
2022-07-30T14:40:17.523Z,28.30
2022-07-30T14:42:26.447Z,28.30
2022-07-30T14:44:34.040Z,28.30
2022-07-30T14:46:51.614Z,28.40
2022-07-30T14:49:01.964Z,28.30
2022-07-30T14:51:17.925Z,28.40
2022-07-30T14:53:29.245Z,28.30
2022-07-30T14:55:36.571Z,28.40
2022-07-30T14:57:44.572Z,28.30
2022-07-30T14:59:51.606Z,28.30
2022-07-30T15:01:59.827Z,28.30
2022-07-30T15:04:10.626Z,28.30
2022-07-30T15:06:18.417Z,28.10
2022-07-30T15:08:25.394Z,28.10
2022-07-30T15:10:32.780Z,28.20
2022-07-30T15:12:39.761Z,28.20
2022-07-30T15:14:50.124Z,28.20
2022-07-30T15:17:04.237Z,28.20
2022-07-30T15:19:14.821Z,28.10
2022-07-30T15:21:22.358Z,28.10
2022-07-30T15:23:29.859Z,28.20
2022-07-30T15:25:37.286Z,28.20
2022-07-30T15:27:44.785Z,28.20
2022-07-30T15:29:51.904Z,28.20
2022-07-30T15:32:01.393Z,28.20
2022-07-30T15:34:11.805Z,28.20
2022-07-30T15:36:20.877Z,28.20
2022-07-30T15:38:28.366Z,28.20
2022-07-30T15:40:35.860Z,28.20
2022-07-30T15:42:43.748Z,28.20
2022-07-30T15:45:15.453Z,28.20
2022-07-30T15:47:18.081Z,28.20
2022-07-30T15:49:25.676Z,28.10
2022-07-30T15:51:36.538Z,28.20
2022-07-30T15:53:43.925Z,28.20
2022-07-30T15:55:51.108Z,28.20
2022-07-30T15:57:58.391Z,28.20
2022-07-30T16:00:05.573Z,28.30
2022-07-30T16:02:18.590Z,28.30
2022-07-30T16:04:31.790Z,28.30
2022-07-30T16:06:41.467Z,28.30
2022-07-30T16:08:48.637Z,28.30
2022-07-30T16:10:55.724Z,28.30
2022-07-30T16:13:02.896Z,28.30
2022-07-30T16:15:11.716Z,28.30
2022-07-30T16:17:18.898Z,28.40
2022-07-30T16:19:26.389Z,28.40
2022-07-30T16:21:33.672Z,28.40
2022-07-30T16:23:44.946Z,28.40
2022-07-30T16:25:52.032Z,28.40
2022-07-30T16:27:59.418Z,28.40
2022-07-30T16:30:06.597Z,28.40
2022-07-30T16:32:14.189Z,28.40
2022-07-30T16:34:22.998Z,28.40
2022-07-30T16:36:34.078Z,28.40
2022-07-30T16:38:43.412Z,28.50
2022-07-30T16:40:50.551Z,28.50
2022-07-30T16:42:57.577Z,28.50
2022-07-30T16:45:05.530Z,28.40
2022-07-30T16:47:14.105Z,28.50
2022-07-30T16:49:21.409Z,28.40
2022-07-30T16:51:28.546Z,28.40
2022-07-30T16:53:35.682Z,28.40
2022-07-30T16:55:45.019Z,28.40
2022-07-30T16:57:51.941Z,28.40
2022-07-30T16:59:59.128Z,28.40
2022-07-30T17:02:06.326Z,28.40
2022-07-30T17:04:13.695Z,28.40
2022-07-30T17:06:20.866Z,28.30
2022-07-30T17:08:28.009Z,28.30
2022-07-30T17:10:35.240Z,28.30
2022-07-30T17:12:50.539Z,28.30
2022-07-30T17:14:58.043Z,28.20
2022-07-30T17:17:05.637Z,28.20
2022-07-30T17:19:12.867Z,28.10
2022-07-30T17:21:20.663Z,28.00
2022-07-30T17:23:27.595Z,28.00
2022-07-30T17:25:35.484Z,28.00
2022-07-30T17:27:44.461Z,28.00
2022-07-30T17:29:51.634Z,27.90
2022-07-30T17:31:58.771Z,27.90
2022-07-30T17:34:05.850Z,27.90
2022-07-30T17:36:13.908Z,27.90
2022-07-30T17:38:20.879Z,27.90
2022-07-30T17:40:31.575Z,27.90
2022-07-30T17:42:40.774Z,28.00
2022-07-30T17:44:49.903Z,27.90
2022-07-30T17:46:56.929Z,27.90
2022-07-30T17:49:04.111Z,27.90
2022-07-30T17:51:11.290Z,27.90
2022-07-30T17:53:18.739Z,27.90
2022-07-30T17:55:25.921Z,27.90
2022-07-30T17:57:33.001Z,27.80
2022-07-30T17:59:39.864Z,27.80
2022-07-30T18:01:48.683Z,27.80
2022-07-30T18:03:55.826Z,27.80
2022-07-30T18:06:03.459Z,27.80
2022-07-30T18:08:10.637Z,27.70
2022-07-30T18:10:18.038Z,27.70
2022-07-30T18:12:25.368Z,27.60
2022-07-30T18:14:32.703Z,27.60
2022-07-30T18:16:40.084Z,27.60
2022-07-30T18:18:49.006Z,27.60
2022-07-30T18:20:55.882Z,27.60
2022-07-30T18:23:03.110Z,27.60
2022-07-30T18:25:18.031Z,27.60
2022-07-30T18:27:26.843Z,27.60
2022-07-30T18:29:34.028Z,27.50
2022-07-30T18:31:41.210Z,27.60
2022-07-30T18:33:50.439Z,27.60
2022-07-30T18:35:57.523Z,27.50
2022-07-30T18:38:04.804Z,27.50
2022-07-30T18:40:12.864Z,27.50
2022-07-30T18:42:20.187Z,27.60
2022-07-30T18:44:27.674Z,27.60
2022-07-30T18:46:34.960Z,27.60
2022-07-30T18:48:42.346Z,27.60
2022-07-30T18:50:51.678Z,27.60
2022-07-30T18:52:58.758Z,27.50
2022-07-30T18:55:06.194Z,27.50
2022-07-30T18:57:14.633Z,27.40
2022-07-30T18:59:22.049Z,27.30
2022-07-30T19:01:29.255Z,27.30
2022-07-30T19:03:36.617Z,27.30
2022-07-30T19:05:43.798Z,27.20
2022-07-30T19:07:58.101Z,27.10
2022-07-30T19:10:05.836Z,27.10
2022-07-30T19:12:13.275Z,27.00
2022-07-30T19:14:20.557Z,27.00
2022-07-30T19:16:27.646Z,27.00
2022-07-30T19:18:35.278Z,27.00
2022-07-30T19:20:42.306Z,27.00
2022-07-30T19:22:51.484Z,27.00
2022-07-30T19:24:58.616Z,27.00
2022-07-30T19:27:05.904Z,27.00
2022-07-30T19:29:13.403Z,27.00
2022-07-30T19:31:20.498Z,27.00
2022-07-30T19:33:27.907Z,27.00
2022-07-30T19:35:34.947Z,27.00
2022-07-30T19:37:42.165Z,27.00
2022-07-30T19:40:05.321Z,27.00
2022-07-30T19:42:13.539Z,27.00
2022-07-30T19:44:20.710Z,26.90
2022-07-30T19:46:28.763Z,27.00
2022-07-30T19:48:38.553Z,27.00
2022-07-30T19:50:45.736Z,27.00
2022-07-30T19:52:55.785Z,27.00
2022-07-30T19:55:17.151Z,27.00
2022-07-30T19:57:45.649Z,27.00
2022-07-30T20:00:04.561Z,27.00
2022-07-30T20:02:18.528Z,27.00
2022-07-30T20:04:25.669Z,27.00
2022-07-30T20:06:32.839Z,27.00
2022-07-30T20:08:40.229Z,26.90
2022-07-30T20:10:49.559Z,26.90
2022-07-30T20:12:57.510Z,26.90
2022-07-30T20:15:05.766Z,26.90
2022-07-30T20:17:19.463Z,26.90
2022-07-30T20:19:26.942Z,26.80
2022-07-30T20:21:54.245Z,26.80
2022-07-30T20:24:04.186Z,26.70
2022-07-30T20:26:15.669Z,26.80
2022-07-30T20:28:22.811Z,26.80
2022-07-30T20:30:33.621Z,26.80
2022-07-30T20:32:46.310Z,26.80
2022-07-30T20:34:53.819Z,26.80
2022-07-30T20:37:14.978Z,26.90
2022-07-30T20:39:29.075Z,26.90
2022-07-30T20:41:38.200Z,26.90
2022-07-30T20:43:51.666Z,26.90
2022-07-30T20:46:00.548Z,26.90
2022-07-30T20:48:16.934Z,26.80
2022-07-30T20:50:30.385Z,26.80
2022-07-30T20:52:39.400Z,26.80
2022-07-30T20:54:47.095Z,26.80
2022-07-30T20:56:56.627Z,26.70
2022-07-30T20:59:03.912Z,26.70
2022-07-30T21:03:38.561Z,26.60
2022-07-30T21:05:46.857Z,26.70
2022-07-30T21:07:54.050Z,26.70
2022-07-30T21:10:02.245Z,26.70
2022-07-30T21:12:12.293Z,26.70
2022-07-30T21:14:19.439Z,26.70
2022-07-30T21:16:30.661Z,26.70
2022-07-30T21:18:37.891Z,26.70
2022-07-30T21:20:47.378Z,26.70
2022-07-30T21:22:55.584Z,26.70
2022-07-30T21:25:02.973Z,26.70
2022-07-30T21:27:17.057Z,26.70
2022-07-30T21:29:27.157Z,26.70
2022-07-30T21:31:57.898Z,26.60
2022-07-30T21:34:01.126Z,26.60
2022-07-30T21:36:10.427Z,26.50
2022-07-30T21:38:18.638Z,26.60
2022-07-30T21:40:27.131Z,26.50
2022-07-30T21:42:48.622Z,26.60
2022-07-30T21:44:56.185Z,26.60
2022-07-30T21:47:03.416Z,26.60
2022-07-30T21:49:11.372Z,26.60
2022-07-30T21:51:19.072Z,26.60
2022-07-30T21:53:45.332Z,26.60
2022-07-30T21:55:53.707Z,26.60
2022-07-30T21:58:02.678Z,26.60
2022-07-30T22:00:15.591Z,26.60
2022-07-30T22:02:22.878Z,26.60
2022-07-30T22:04:31.290Z,26.60
2022-07-30T22:06:40.076Z,26.60
2022-07-30T22:08:49.287Z,26.60
2022-07-30T22:10:57.448Z,26.60
2022-07-30T22:13:06.666Z,26.60
2022-07-30T22:15:15.152Z,26.60
2022-07-30T22:17:23.735Z,26.50
2022-07-30T22:19:44.341Z,26.40
2022-07-30T22:21:51.829Z,26.30
2022-07-30T22:24:01.879Z,26.30
2022-07-30T22:26:09.682Z,26.30
2022-07-30T22:28:19.364Z,26.30
2022-07-30T22:30:27.670Z,26.30
2022-07-30T22:32:34.752Z,26.30
2022-07-30T22:34:42.187Z,26.30
2022-07-30T22:36:51.834Z,26.30
2022-07-30T22:39:00.301Z,26.30
2022-07-30T22:41:07.432Z,26.40
2022-07-30T22:43:17.425Z,26.30
2022-07-30T22:45:47.222Z,26.30
2022-07-30T22:47:53.952Z,26.30
2022-07-30T22:50:01.861Z,26.30
2022-07-30T22:52:20.051Z,26.30
2022-07-30T22:54:29.269Z,26.40
2022-07-30T22:56:36.615Z,26.50
2022-07-30T22:58:48.576Z,26.40
2022-07-30T23:00:56.044Z,26.40
2022-07-30T23:03:03.075Z,26.40
2022-07-30T23:05:15.159Z,26.30
2022-07-30T23:07:22.238Z,26.20
2022-07-30T23:09:30.812Z,26.20
2022-07-30T23:11:56.272Z,26.30
2022-07-30T23:12:26.633Z,26.70
2022-07-30T23:14:05.444Z,26.30
2022-07-30T23:16:12.625Z,26.40
2022-07-30T23:18:20.365Z,26.40
2022-07-30T23:20:27.354Z,26.50
2022-07-30T23:22:34.947Z,26.50
2022-07-30T23:24:42.168Z,26.60
2022-07-30T23:26:50.499Z,26.70
2022-07-30T23:28:57.555Z,26.60
2022-07-30T23:31:07.041Z,26.60
2022-07-30T23:33:14.172Z,26.60
2022-07-30T23:35:21.812Z,26.70
2022-07-30T23:37:29.100Z,26.70
2022-07-30T23:39:55.938Z,26.70
2022-07-30T23:42:03.018Z,26.70
2022-07-30T23:44:10.212Z,26.70
2022-07-30T23:46:18.930Z,26.70
2022-07-30T23:48:26.406Z,26.70
2022-07-30T23:50:34.356Z,26.70
2022-07-30T23:52:43.341Z,26.70
2022-07-30T23:54:50.627Z,26.70
2022-07-30T23:56:58.566Z,26.70
2022-07-30T23:59:06.357Z,26.70
